createdAt,value
2019-03-12T00:00:23.013Z,69.19
2019-03-12T00:01:26.502Z,69.15
2019-03-12T00:02:29.915Z,69.19
2019-03-12T00:03:33.414Z,69.21
2019-03-12T00:04:36.881Z,69.14
2019-03-12T00:05:40.315Z,69.06
2019-03-12T00:06:43.739Z,69.11
2019-03-12T00:07:47.171Z,69.20
2019-03-12T00:08:50.636Z,68.96
2019-03-12T00:09:54.082Z,68.93
2019-03-12T00:10:57.550Z,69.08
2019-03-12T00:12:00.974Z,69.22
2019-03-12T00:13:04.469Z,69.17
2019-03-12T00:14:07.893Z,69.20
2019-03-12T00:15:12.077Z,69.18
2019-03-12T00:16:15.498Z,69.08
2019-03-12T00:17:18.924Z,69.25
2019-03-12T00:18:22.419Z,69.28
2019-03-12T00:19:25.849Z,69.23
2019-03-12T00:20:29.301Z,68.73
2019-03-12T00:21:32.736Z,68.86
2019-03-12T00:22:36.156Z,68.94
2019-03-12T00:23:39.577Z,69.02
2019-03-12T00:24:43.005Z,68.79
2019-03-12T00:25:46.440Z,68.98
2019-03-12T00:26:49.866Z,68.93
2019-03-12T00:27:53.313Z,68.71
2019-03-12T00:28:56.727Z,68.78
2019-03-12T00:30:00.441Z,68.85
2019-03-12T00:31:03.977Z,68.85
2019-03-12T00:32:07.404Z,68.82
2019-03-12T00:33:10.931Z,68.71
2019-03-12T00:34:14.348Z,68.69
2019-03-12T00:35:17.976Z,68.76
2019-03-12T00:36:21.509Z,68.82
2019-03-12T00:37:24.925Z,68.77
2019-03-12T00:38:28.433Z,68.71
2019-03-12T00:39:31.848Z,68.71
2019-03-12T00:40:35.340Z,68.58
2019-03-12T00:41:38.791Z,68.67
2019-03-12T00:42:42.239Z,68.53
2019-03-12T00:43:45.686Z,68.51
2019-03-12T00:44:49.114Z,68.55
2019-03-12T00:45:52.545Z,68.46
2019-03-12T00:46:55.991Z,68.57
2019-03-12T00:47:59.445Z,68.53
2019-03-12T00:49:02.867Z,68.48
2019-03-12T00:50:09.128Z,68.56
2019-03-12T00:51:12.564Z,68.61
2019-03-12T00:52:15.994Z,68.52
2019-03-12T00:53:19.443Z,68.69
2019-03-12T00:54:23.036Z,68.79
2019-03-12T00:55:26.468Z,68.76
2019-03-12T00:56:29.979Z,68.79
2019-03-12T00:57:33.439Z,68.82
2019-03-12T00:58:36.864Z,68.83
2019-03-12T00:59:40.275Z,68.77
2019-03-12T01:00:43.707Z,68.90
2019-03-12T01:01:47.129Z,68.72
2019-03-12T01:02:50.630Z,68.73
2019-03-12T01:03:54.084Z,68.80
2019-03-12T01:04:57.508Z,68.87
2019-03-12T01:06:00.932Z,68.77
2019-03-12T01:07:04.495Z,68.85
2019-03-12T01:08:08.002Z,68.89
2019-03-12T01:09:11.492Z,68.85
2019-03-12T01:10:15.262Z,68.91
2019-03-12T01:11:19.433Z,69.03
2019-03-12T01:12:22.847Z,69.11
2019-03-12T01:13:26.371Z,69.21
2019-03-12T01:14:29.796Z,69.28
2019-03-12T01:15:33.226Z,69.45
2019-03-12T01:16:36.656Z,69.70
2019-03-12T01:17:40.076Z,69.82
2019-03-12T01:18:43.520Z,69.96
2019-03-12T01:19:46.949Z,69.95
2019-03-12T01:20:50.365Z,70.11
2019-03-12T01:21:53.853Z,70.12
2019-03-12T01:22:57.278Z,70.16
2019-03-12T01:24:00.799Z,70.23
2019-03-12T01:25:05.155Z,70.36
2019-03-12T01:26:08.601Z,70.35
2019-03-12T01:27:12.187Z,70.33
2019-03-12T01:28:15.630Z,70.24
2019-03-12T01:29:19.069Z,70.27
2019-03-12T01:30:22.573Z,70.24
2019-03-12T01:31:26.004Z,70.27
2019-03-12T01:32:29.425Z,70.25
2019-03-12T01:33:32.853Z,70.39
2019-03-12T01:34:36.299Z,70.51
2019-03-12T01:35:39.736Z,70.53
2019-03-12T01:36:43.166Z,70.35
2019-03-12T01:37:46.656Z,70.25
2019-03-12T01:38:50.079Z,70.28
2019-03-12T01:39:53.534Z,70.28
2019-03-12T01:40:57.045Z,70.23
2019-03-12T01:42:00.470Z,70.14
2019-03-12T01:43:03.893Z,70.06
2019-03-12T01:44:07.318Z,70.03
2019-03-12T01:45:14.950Z,70.37
2019-03-12T01:46:18.363Z,70.49
2019-03-12T01:47:21.783Z,70.53
2019-03-12T01:48:25.205Z,70.31
2019-03-12T01:49:28.632Z,70.26
2019-03-12T01:50:32.147Z,70.26
2019-03-12T01:51:35.591Z,70.36
2019-03-12T01:52:39.073Z,70.31
2019-03-12T01:53:42.518Z,70.30
2019-03-12T01:54:45.942Z,70.40
2019-03-12T01:55:49.463Z,70.35
2019-03-12T01:56:53.018Z,70.42
2019-03-12T01:57:56.456Z,70.42
2019-03-12T01:58:59.894Z,70.14
2019-03-12T02:00:04.166Z,70.27
2019-03-12T02:01:07.680Z,70.36
2019-03-12T02:02:11.169Z,70.31
2019-03-12T02:03:14.645Z,70.18
2019-03-12T02:04:18.019Z,70.14
2019-03-12T02:05:21.442Z,70.10
2019-03-12T02:06:24.972Z,69.98
2019-03-12T02:07:28.410Z,69.90
2019-03-12T02:08:31.907Z,69.91
2019-03-12T02:09:35.397Z,69.84
2019-03-12T02:10:38.957Z,69.81
2019-03-12T02:11:42.397Z,69.71
2019-03-12T02:12:45.844Z,69.62
2019-03-12T02:13:49.340Z,69.36
2019-03-12T02:14:52.765Z,69.43
2019-03-12T02:15:56.276Z,69.29
2019-03-12T02:16:59.717Z,69.20
2019-03-12T02:18:03.180Z,69.24
2019-03-12T02:19:06.602Z,69.13
2019-03-12T02:20:15.115Z,68.91
2019-03-12T02:21:18.624Z,68.92
2019-03-12T02:22:22.056Z,68.86
2019-03-12T02:23:28.734Z,68.78
2019-03-12T02:24:30.798Z,68.86
2019-03-12T02:25:34.162Z,68.60
2019-03-12T02:26:37.597Z,68.56
2019-03-12T02:27:41.112Z,68.56
2019-03-12T02:28:44.603Z,68.54
2019-03-12T02:29:48.044Z,68.42
2019-03-12T02:30:51.473Z,68.54
2019-03-12T02:31:54.913Z,68.48
2019-03-12T02:32:58.350Z,68.48
2019-03-12T02:34:01.786Z,68.48
2019-03-12T02:35:06.022Z,68.25
2019-03-12T02:36:09.565Z,68.32
2019-03-12T02:37:13.083Z,68.24
2019-03-12T02:38:16.527Z,68.04
2019-03-12T02:39:20.012Z,68.09
2019-03-12T02:40:23.478Z,68.13
2019-03-12T02:41:26.911Z,68.09
2019-03-12T02:42:30.341Z,68.12
2019-03-12T02:43:33.780Z,68.32
2019-03-12T02:44:37.207Z,68.32
2019-03-12T02:45:40.696Z,68.31
2019-03-12T02:46:44.201Z,68.17
2019-03-12T02:47:47.695Z,68.26
2019-03-12T02:48:51.190Z,68.28
2019-03-12T02:49:54.608Z,68.28
2019-03-12T02:50:58.036Z,68.21
2019-03-12T02:52:01.463Z,68.23
2019-03-12T02:53:04.896Z,68.27
2019-03-12T02:54:08.350Z,68.14
2019-03-12T02:55:12.311Z,68.04
2019-03-12T02:56:15.738Z,68.12
2019-03-12T02:57:19.168Z,68.19
2019-03-12T02:58:22.612Z,68.23
2019-03-12T02:59:26.025Z,68.17
2019-03-12T03:00:29.544Z,68.15
2019-03-12T03:01:32.960Z,68.10
2019-03-12T03:02:36.387Z,68.12
2019-03-12T03:03:39.813Z,68.12
2019-03-12T03:04:43.345Z,68.12
2019-03-12T03:05:48.442Z,68.24
2019-03-12T03:06:53.477Z,68.31
2019-03-12T03:08:04.376Z,68.36
2019-03-12T03:09:07.869Z,68.45
2019-03-12T03:10:12.226Z,68.54
2019-03-12T03:11:15.638Z,68.45
2019-03-12T03:12:19.069Z,68.49
2019-03-12T03:13:22.559Z,68.42
2019-03-12T03:14:30.804Z,68.34
2019-03-12T03:15:42.796Z,68.49
2019-03-12T03:16:46.219Z,68.43
2019-03-12T03:17:49.722Z,68.47
2019-03-12T03:18:53.289Z,68.47
2019-03-12T03:19:56.711Z,68.35
2019-03-12T03:21:00.241Z,68.40
2019-03-12T03:22:03.662Z,68.58
2019-03-12T03:23:07.204Z,68.54
2019-03-12T03:24:10.616Z,68.57
2019-03-12T03:25:15.290Z,68.59
2019-03-12T03:26:18.852Z,68.66
2019-03-12T03:27:22.286Z,68.68
2019-03-12T03:28:25.716Z,68.64
2019-03-12T03:29:29.136Z,68.58
2019-03-12T03:30:32.636Z,68.57
2019-03-12T03:31:36.076Z,68.66
2019-03-12T03:32:39.523Z,68.68
2019-03-12T03:33:42.937Z,68.64
2019-03-12T03:34:46.379Z,68.75
2019-03-12T03:35:49.813Z,68.77
2019-03-12T03:36:53.336Z,68.67
2019-03-12T03:37:56.759Z,68.60
2019-03-12T03:39:00.207Z,68.59
2019-03-12T03:40:05.561Z,68.67
2019-03-12T03:41:09.014Z,68.73
2019-03-12T03:42:12.445Z,68.74
2019-03-12T03:43:15.881Z,68.82
2019-03-12T03:44:19.380Z,68.81
2019-03-12T03:45:22.883Z,68.75
2019-03-12T03:46:26.313Z,68.77
2019-03-12T03:47:29.782Z,68.80
2019-03-12T03:48:33.261Z,68.74
2019-03-12T03:49:36.742Z,68.84
2019-03-12T03:50:40.173Z,68.76
2019-03-12T03:51:43.602Z,68.74
2019-03-12T03:52:47.151Z,68.72
2019-03-12T03:53:50.551Z,68.79
2019-03-12T03:54:54.066Z,68.75
2019-03-12T03:55:57.494Z,68.77
2019-03-12T03:57:00.931Z,68.83
2019-03-12T03:58:04.520Z,68.87
2019-03-12T03:59:08.018Z,68.91
2019-03-12T04:00:14.484Z,68.84
2019-03-12T04:01:17.979Z,68.99
2019-03-12T04:02:21.404Z,68.96
2019-03-12T04:03:24.861Z,69.05
2019-03-12T04:04:28.291Z,69.05
2019-03-12T04:05:31.720Z,68.95
2019-03-12T04:06:35.163Z,68.92
2019-03-12T04:07:38.652Z,68.99
2019-03-12T04:08:42.089Z,69.09
2019-03-12T04:09:45.688Z,69.14
2019-03-12T04:10:49.114Z,69.07
2019-03-12T04:11:52.567Z,69.00
2019-03-12T04:12:56.145Z,68.97
2019-03-12T04:13:59.615Z,68.90
2019-03-12T04:15:03.110Z,68.84
2019-03-12T04:16:06.533Z,68.83
2019-03-12T04:17:09.945Z,68.75
2019-03-12T04:18:13.390Z,68.85
2019-03-12T04:19:16.856Z,68.91
2019-03-12T04:20:20.374Z,69.02
2019-03-12T04:21:23.926Z,68.93
2019-03-12T04:22:27.345Z,68.85
2019-03-12T04:23:30.795Z,69.00
2019-03-12T04:24:34.293Z,69.04
2019-03-12T04:25:37.720Z,69.05
2019-03-12T04:26:41.229Z,69.05
2019-03-12T04:27:44.881Z,69.27
2019-03-12T04:28:48.379Z,69.18
2019-03-12T04:29:52.045Z,69.24
2019-03-12T04:30:55.490Z,69.26
2019-03-12T04:31:58.917Z,69.18
2019-03-12T04:33:02.347Z,69.17
2019-03-12T04:34:13.089Z,69.10
2019-03-12T04:35:22.169Z,68.97
2019-03-12T04:36:25.592Z,68.96
2019-03-12T04:37:29.011Z,68.97
2019-03-12T04:38:32.439Z,69.07
2019-03-12T04:39:35.866Z,69.07
2019-03-12T04:40:39.376Z,69.12
2019-03-12T04:41:42.868Z,69.05
2019-03-12T04:42:46.293Z,69.02
2019-03-12T04:43:49.716Z,68.99
2019-03-12T04:44:53.169Z,68.89
2019-03-12T04:45:56.610Z,68.86
2019-03-12T04:47:00.105Z,68.80
2019-03-12T04:48:03.528Z,68.65
2019-03-12T04:49:06.963Z,68.71
2019-03-12T04:50:10.617Z,68.60
2019-03-12T04:51:14.057Z,68.56
2019-03-12T04:52:17.560Z,68.68
2019-03-12T04:53:20.981Z,68.68
2019-03-12T04:54:24.404Z,68.77
2019-03-12T04:55:27.903Z,68.69
2019-03-12T04:56:31.342Z,68.57
2019-03-12T04:57:34.804Z,68.57
2019-03-12T04:58:38.583Z,68.47
2019-03-12T04:59:41.997Z,68.57
2019-03-12T05:00:45.491Z,68.59
2019-03-12T05:01:49.030Z,68.66
2019-03-12T05:02:52.457Z,68.62
2019-03-12T05:03:55.885Z,68.65
2019-03-12T05:04:59.309Z,68.61
2019-03-12T05:06:02.927Z,68.45
2019-03-12T05:07:06.404Z,68.45
2019-03-12T05:08:09.852Z,68.46
2019-03-12T05:09:13.422Z,68.38
2019-03-12T05:10:17.092Z,68.26
2019-03-12T05:11:20.589Z,68.24
2019-03-12T05:12:24.029Z,68.31
2019-03-12T05:13:27.527Z,68.42
2019-03-12T05:14:31.134Z,68.29
2019-03-12T05:15:34.679Z,68.34
2019-03-12T05:16:38.087Z,68.40
2019-03-12T05:17:41.663Z,68.33
2019-03-12T05:18:45.129Z,68.37
2019-03-12T05:19:48.600Z,68.38
2019-03-12T05:20:52.030Z,68.46
2019-03-12T05:21:55.501Z,68.30
2019-03-12T05:22:58.935Z,68.06
2019-03-12T05:24:02.362Z,68.17
2019-03-12T05:25:09.074Z,68.18
2019-03-12T05:26:12.491Z,68.22
2019-03-12T05:27:16.005Z,68.06
2019-03-12T05:28:19.453Z,68.19
2019-03-12T05:29:22.878Z,68.25
2019-03-12T05:30:26.303Z,68.35
2019-03-12T05:31:29.760Z,68.34
2019-03-12T05:32:33.216Z,68.27
2019-03-12T05:33:36.665Z,68.22
2019-03-12T05:34:40.147Z,68.36
2019-03-12T05:35:43.636Z,68.37
2019-03-12T05:36:47.058Z,68.40
2019-03-12T05:37:50.645Z,68.41
2019-03-12T05:38:54.071Z,68.31
2019-03-12T05:39:57.489Z,68.22
2019-03-12T05:41:00.981Z,68.20
2019-03-12T05:42:04.556Z,68.22
2019-03-12T05:43:08.018Z,68.18
2019-03-12T05:44:11.445Z,68.04
2019-03-12T05:45:16.990Z,68.10
2019-03-12T05:46:20.404Z,67.96
2019-03-12T05:47:23.840Z,68.11
2019-03-12T05:48:27.287Z,68.04
2019-03-12T05:49:30.739Z,67.88
2019-03-12T05:50:34.200Z,67.94
2019-03-12T05:51:37.607Z,68.01
2019-03-12T05:52:41.103Z,68.00
2019-03-12T05:53:54.144Z,67.93
2019-03-12T05:54:57.578Z,67.80
2019-03-12T05:56:01.076Z,67.88
2019-03-12T05:57:04.584Z,68.10
2019-03-12T05:58:08.150Z,68.17
2019-03-12T05:59:11.615Z,68.08
2019-03-12T06:00:17.336Z,67.92
2019-03-12T06:01:20.826Z,67.66
2019-03-12T06:02:24.329Z,67.72
2019-03-12T06:03:27.756Z,67.77
2019-03-12T06:04:31.201Z,67.76
2019-03-12T06:05:34.653Z,67.84
2019-03-12T06:06:38.074Z,67.75
2019-03-12T06:07:41.571Z,67.81
2019-03-12T06:08:45.074Z,67.92
2019-03-12T06:09:48.519Z,67.99
2019-03-12T06:10:51.950Z,67.89
2019-03-12T06:11:55.393Z,67.80
2019-03-12T06:12:58.884Z,67.90
2019-03-12T06:14:02.315Z,68.06
2019-03-12T06:15:11.035Z,68.15
2019-03-12T06:16:14.466Z,68.14
2019-03-12T06:17:17.894Z,68.09
2019-03-12T06:18:21.388Z,67.87
2019-03-12T06:19:24.825Z,67.89
2019-03-12T06:20:28.275Z,68.07
2019-03-12T06:21:31.705Z,68.07
2019-03-12T06:22:35.160Z,67.99
2019-03-12T06:23:38.602Z,67.90
2019-03-12T06:24:42.021Z,67.86
2019-03-12T06:25:45.466Z,67.87
2019-03-12T06:26:48.905Z,67.90
2019-03-12T06:27:52.340Z,67.95
2019-03-12T06:28:55.781Z,67.99
2019-03-12T06:29:59.198Z,68.09
2019-03-12T06:31:04.361Z,68.06
2019-03-12T06:32:21.180Z,68.00
2019-03-12T06:33:28.776Z,68.33
2019-03-12T06:34:33.840Z,68.19
2019-03-12T06:35:38.902Z,68.13
2019-03-12T06:36:46.601Z,67.95
2019-03-12T06:37:54.399Z,68.00
2019-03-12T06:39:15.145Z,68.19
2019-03-12T06:40:26.135Z,68.09
2019-03-12T06:41:47.136Z,68.09
2019-03-12T06:43:00.628Z,68.14
2019-03-12T06:44:08.532Z,68.28
2019-03-12T06:45:13.744Z,68.36
2019-03-12T06:46:27.401Z,68.26
2019-03-12T06:47:35.002Z,68.20
2019-03-12T06:48:45.828Z,68.19
2019-03-12T06:49:50.971Z,68.18
2019-03-12T06:50:58.811Z,68.14
2019-03-12T06:52:06.935Z,67.99
2019-03-12T06:53:14.826Z,67.82
2019-03-12T06:54:28.585Z,67.77
2019-03-12T06:55:33.668Z,67.78
2019-03-12T06:56:53.599Z,67.89
2019-03-12T06:58:20.956Z,67.91
2019-03-12T06:59:26.041Z,67.73
2019-03-12T07:00:31.099Z,67.58
2019-03-12T07:01:41.892Z,67.53
2019-03-12T07:02:46.956Z,67.50
2019-03-12T07:03:55.243Z,67.60
2019-03-12T07:05:00.405Z,67.72
2019-03-12T07:06:11.610Z,67.76
2019-03-12T07:07:22.706Z,67.55
2019-03-12T07:08:27.773Z,67.17
2019-03-12T07:09:38.638Z,67.17
2019-03-12T07:10:58.882Z,67.12
2019-03-12T07:12:03.962Z,66.82
2019-03-12T07:13:24.687Z,66.84
2019-03-12T07:14:41.594Z,67.02
2019-03-12T07:15:49.117Z,66.80
2019-03-12T07:17:08.944Z,66.86
2019-03-12T07:18:16.885Z,66.92
2019-03-12T07:19:37.777Z,67.00
2019-03-12T07:20:54.673Z,67.20
2019-03-12T07:22:02.460Z,67.03
2019-03-12T07:23:22.732Z,67.01
2019-03-12T07:24:27.790Z,66.96
2019-03-12T07:25:38.927Z,67.01
2019-03-12T07:26:43.989Z,67.09
2019-03-12T07:28:05.396Z,67.06
2019-03-12T07:29:13.426Z,67.09
2019-03-12T07:30:18.549Z,67.00
2019-03-12T07:31:38.509Z,66.88
2019-03-12T07:32:49.069Z,66.64
2019-03-12T07:33:56.783Z,66.60
2019-03-12T07:35:04.518Z,66.78
2019-03-12T07:36:15.671Z,66.62
2019-03-12T07:37:26.421Z,66.41
2019-03-12T07:38:40.037Z,66.33
2019-03-12T07:40:00.315Z,66.50
2019-03-12T07:41:29.987Z,66.36
2019-03-12T07:42:21.320Z,66.49
2019-03-12T07:43:26.390Z,66.47
2019-03-12T07:44:37.495Z,66.37
2019-03-12T07:45:45.293Z,66.57
2019-03-12T07:46:50.621Z,66.11
2019-03-12T07:48:11.430Z,66.05
2019-03-12T07:49:16.576Z,66.09
2019-03-12T07:50:27.345Z,66.28
2019-03-12T07:51:48.440Z,66.25
2019-03-12T07:53:09.259Z,66.42
2019-03-12T07:54:23.275Z,66.20
2019-03-12T07:55:31.048Z,65.98
2019-03-12T07:56:36.167Z,66.13
2019-03-12T07:57:41.260Z,65.58
2019-03-12T07:58:52.052Z,65.62
2019-03-12T08:00:12.769Z,65.74
2019-03-12T08:01:17.847Z,65.82
2019-03-12T08:02:25.713Z,65.63
2019-03-12T08:03:45.867Z,65.64
2019-03-12T08:04:53.611Z,65.41
2019-03-12T08:06:07.528Z,65.35
2019-03-12T08:07:15.538Z,65.42
2019-03-12T08:08:23.440Z,65.30
2019-03-12T08:09:46.593Z,65.17
2019-03-12T08:11:03.276Z,65.01
2019-03-12T08:12:16.878Z,64.10
2019-03-12T08:13:30.952Z,63.44
2019-03-12T08:14:44.779Z,63.29
2019-03-12T08:16:04.723Z,63.26
2019-03-12T08:17:09.792Z,63.20
2019-03-12T08:18:17.543Z,63.15
2019-03-12T08:19:38.753Z,63.17
2019-03-12T08:20:55.428Z,62.51
2019-03-12T08:22:03.229Z,62.75
2019-03-12T08:23:08.409Z,62.23
2019-03-12T08:24:28.107Z,62.22
2019-03-12T08:25:38.921Z,62.23
2019-03-12T08:26:52.665Z,62.11
2019-03-12T08:28:00.534Z,61.44
2019-03-12T08:29:11.550Z,61.28
2019-03-12T08:30:19.406Z,61.31
2019-03-12T08:31:27.445Z,61.30
2019-03-12T08:32:48.352Z,61.04
2019-03-12T08:33:56.156Z,59.98
2019-03-12T08:35:01.242Z,59.91
2019-03-12T08:36:06.382Z,60.16
2019-03-12T08:37:23.265Z,59.32
2019-03-12T08:38:30.959Z,58.36
2019-03-12T08:39:41.485Z,58.65
2019-03-12T08:41:02.264Z,58.96
2019-03-12T08:42:13.297Z,58.35
2019-03-12T08:43:21.337Z,58.33
2019-03-12T08:44:26.607Z,58.32
2019-03-12T08:45:31.657Z,57.89
2019-03-12T08:46:36.800Z,57.80
2019-03-12T08:47:44.635Z,57.26
2019-03-12T08:48:49.717Z,57.36
2019-03-12T08:50:10.746Z,56.82
2019-03-12T08:51:15.946Z,55.29
2019-03-12T08:52:29.678Z,55.72
2019-03-12T08:53:34.771Z,56.45
2019-03-12T08:54:53.840Z,56.89
2019-03-12T08:55:58.175Z,56.33
2019-03-12T08:57:15.031Z,56.70
2019-03-12T08:58:26.072Z,57.05
2019-03-12T08:59:40.036Z,57.39
2019-03-12T09:01:03.097Z,57.68
2019-03-12T09:02:23.964Z,57.98
2019-03-12T09:03:37.780Z,57.91
2019-03-12T09:04:45.424Z,57.31
2019-03-12T09:05:56.221Z,56.66
2019-03-12T09:07:13.095Z,56.85
2019-03-12T09:08:18.241Z,56.34
2019-03-12T09:09:26.076Z,56.47
2019-03-12T09:10:31.211Z,56.63
2019-03-12T09:11:41.977Z,56.87
2019-03-12T09:12:47.031Z,55.83
2019-03-12T09:13:57.705Z,55.93
2019-03-12T09:15:14.581Z,56.19
2019-03-12T09:16:37.664Z,56.62
2019-03-12T09:18:00.711Z,56.27
2019-03-12T09:19:14.593Z,56.64
2019-03-12T09:20:22.542Z,56.96
2019-03-12T09:21:30.097Z,56.77
2019-03-12T09:22:51.316Z,56.11
2019-03-12T09:23:56.471Z,55.77
2019-03-12T09:25:11.547Z,56.10
2019-03-12T09:26:17.136Z,55.70
2019-03-12T09:27:37.981Z,54.76
2019-03-12T09:28:59.364Z,54.84
2019-03-12T09:30:10.240Z,54.47
2019-03-12T09:31:15.300Z,54.41
2019-03-12T09:32:26.353Z,54.11
2019-03-12T09:33:49.154Z,53.66
2019-03-12T09:35:06.189Z,53.92
2019-03-12T09:36:11.279Z,53.74
2019-03-12T09:37:19.159Z,53.47
2019-03-12T09:38:24.227Z,53.22
2019-03-12T09:39:45.515Z,53.39
2019-03-12T09:40:50.658Z,53.61
2019-03-12T09:42:01.599Z,53.22
2019-03-12T09:43:09.421Z,53.25
2019-03-12T09:44:14.564Z,53.21
2019-03-12T09:45:28.733Z,53.05
2019-03-12T09:46:42.404Z,52.78
2019-03-12T09:47:50.349Z,53.03
2019-03-12T09:48:58.257Z,53.41
2019-03-12T09:50:19.545Z,53.47
2019-03-12T09:51:27.610Z,53.18
2019-03-12T09:52:50.955Z,52.52
2019-03-12T09:53:56.073Z,52.62
2019-03-12T09:55:07.139Z,52.46
2019-03-12T09:56:28.266Z,52.15
2019-03-12T09:57:42.509Z,51.58
2019-03-12T09:58:47.637Z,51.97
2019-03-12T10:00:16.078Z,51.79
2019-03-12T10:01:25.957Z,51.57
2019-03-12T10:02:31.031Z,51.67
2019-03-12T10:03:39.066Z,51.33
2019-03-12T10:04:44.168Z,51.82
2019-03-12T10:05:55.376Z,51.43
2019-03-12T10:07:09.419Z,51.29
2019-03-12T10:08:20.055Z,51.39
2019-03-12T10:09:30.840Z,51.53
2019-03-12T10:10:44.465Z,50.90
2019-03-12T10:11:55.572Z,50.38
2019-03-12T10:13:00.780Z,49.91
2019-03-12T10:14:22.186Z,49.73
2019-03-12T10:15:33.380Z,49.83
2019-03-12T10:16:46.906Z,50.14
2019-03-12T10:18:06.896Z,50.48
2019-03-12T10:19:14.938Z,50.64
2019-03-12T10:20:28.964Z,50.83
2019-03-12T10:21:45.776Z,50.76
2019-03-12T10:22:50.913Z,50.50
2019-03-12T10:23:55.992Z,51.11
2019-03-12T10:25:16.928Z,50.68
2019-03-12T10:26:30.782Z,50.79
2019-03-12T10:27:47.595Z,50.90
2019-03-12T10:28:52.742Z,50.78
2019-03-12T10:30:09.568Z,48.59
2019-03-12T10:31:20.607Z,48.45
2019-03-12T10:32:28.721Z,48.36
2019-03-12T10:33:36.769Z,48.19
2019-03-12T10:34:50.769Z,48.47
2019-03-12T10:36:13.611Z,47.89
2019-03-12T10:37:24.527Z,47.86
2019-03-12T10:39:14.684Z,48.01
2019-03-12T10:40:19.906Z,47.15
2019-03-12T10:41:40.893Z,47.32
2019-03-12T10:42:51.760Z,47.02
2019-03-12T10:43:55.745Z,46.32
2019-03-12T10:45:06.922Z,46.23
2019-03-12T10:46:12.062Z,46.40
2019-03-12T10:47:17.155Z,46.64
2019-03-12T10:48:20.595Z,46.55
2019-03-12T10:49:36.702Z,46.57
2019-03-12T10:50:29.581Z,46.82
2019-03-12T10:51:33.093Z,45.92
2019-03-12T10:52:36.600Z,46.20
2019-03-12T10:53:40.091Z,46.05
2019-03-12T10:54:43.586Z,45.67
2019-03-12T10:55:47.094Z,45.31
2019-03-12T10:56:50.522Z,46.07
2019-03-12T10:57:54.013Z,46.21
2019-03-12T10:58:57.504Z,46.32
2019-03-12T11:00:00.992Z,46.16
2019-03-12T11:01:04.532Z,46.68
2019-03-12T11:02:08.406Z,46.66
2019-03-12T11:03:11.868Z,46.79
2019-03-12T11:04:15.294Z,46.71
2019-03-12T11:05:19.349Z,46.95
2019-03-12T11:06:23.137Z,46.64
2019-03-12T11:07:26.700Z,45.92
2019-03-12T11:08:30.267Z,46.66
2019-03-12T11:09:33.711Z,45.91
2019-03-12T11:10:37.196Z,46.25
2019-03-12T11:11:40.641Z,45.95
2019-03-12T11:12:44.155Z,45.83
2019-03-12T11:13:47.651Z,45.89
2019-03-12T11:14:51.068Z,45.33
2019-03-12T11:15:54.493Z,45.62
2019-03-12T11:16:57.936Z,45.07
2019-03-12T11:18:01.458Z,45.45
2019-03-12T11:19:04.874Z,45.46
2019-03-12T11:20:11.345Z,45.36
2019-03-12T11:21:14.779Z,45.43
2019-03-12T11:22:18.214Z,45.64
2019-03-12T11:23:21.806Z,45.09
2019-03-12T11:24:25.230Z,45.24
2019-03-12T11:25:28.647Z,44.92
2019-03-12T11:26:32.143Z,44.48
2019-03-12T11:27:35.590Z,44.63
2019-03-12T11:28:39.168Z,43.95
2019-03-12T11:29:42.662Z,44.78
2019-03-12T11:30:46.104Z,45.05
2019-03-12T11:31:49.537Z,43.47
2019-03-12T11:32:52.991Z,44.23
2019-03-12T11:33:56.447Z,42.66
2019-03-12T11:34:59.871Z,43.42
2019-03-12T11:36:03.366Z,43.07
2019-03-12T11:37:06.961Z,41.98
2019-03-12T11:38:10.361Z,42.35
2019-03-12T11:39:13.949Z,42.17
2019-03-12T11:40:25.376Z,41.89
2019-03-12T11:41:29.289Z,41.10
2019-03-12T11:42:32.707Z,41.90
2019-03-12T11:43:36.207Z,41.15
2019-03-12T11:44:39.665Z,42.32
2019-03-12T11:45:43.137Z,41.70
2019-03-12T11:46:46.637Z,41.83
2019-03-12T11:47:50.125Z,41.46
2019-03-12T11:48:53.635Z,41.27
2019-03-12T11:49:57.130Z,41.12
2019-03-12T11:51:00.695Z,40.95
2019-03-12T11:52:04.209Z,40.81
2019-03-12T11:53:07.808Z,40.82
2019-03-12T11:54:11.316Z,40.40
2019-03-12T11:55:15.996Z,38.80
2019-03-12T11:56:19.625Z,39.67
2019-03-12T11:57:23.120Z,39.32
2019-03-12T11:58:26.560Z,39.32
2019-03-12T11:59:30.074Z,39.46
2019-03-12T12:00:35.236Z,37.23
2019-03-12T12:01:38.731Z,37.20
2019-03-12T12:02:42.225Z,39.81
2019-03-12T12:03:45.715Z,38.58
2019-03-12T12:04:49.309Z,36.55
2019-03-12T12:05:52.734Z,35.65
2019-03-12T12:06:56.221Z,36.05
2019-03-12T12:07:59.680Z,34.95
2019-03-12T12:09:03.286Z,34.33
2019-03-12T12:10:15.254Z,34.73
2019-03-12T12:11:18.774Z,35.28
2019-03-12T12:12:22.196Z,35.79
2019-03-12T12:13:25.620Z,34.02
2019-03-12T12:14:29.106Z,34.65
2019-03-12T12:15:32.765Z,34.97
2019-03-12T12:16:36.268Z,34.23
2019-03-12T12:17:40.002Z,34.32
2019-03-12T12:18:43.441Z,34.44
2019-03-12T12:19:46.867Z,35.31
2019-03-12T12:20:50.396Z,34.79
2019-03-12T12:21:53.826Z,33.90
2019-03-12T12:22:57.399Z,34.52
2019-03-12T12:24:00.825Z,33.61
2019-03-12T12:25:06.641Z,33.12
2019-03-12T12:26:10.222Z,33.35
2019-03-12T12:27:13.691Z,31.43
2019-03-12T12:28:17.233Z,28.04
2019-03-12T12:29:20.663Z,26.83
2019-03-12T12:30:24.915Z,29.70
2019-03-12T12:31:28.357Z,29.42
2019-03-12T12:32:31.806Z,26.58
2019-03-12T12:33:35.311Z,26.82
2019-03-12T12:34:38.739Z,24.04
2019-03-12T12:35:42.159Z,23.68
2019-03-12T12:36:45.686Z,24.54
2019-03-12T12:37:49.112Z,25.93
2019-03-12T12:38:52.684Z,26.40
2019-03-12T12:39:56.208Z,27.65
2019-03-12T12:40:59.839Z,28.00
2019-03-12T12:42:03.353Z,29.15
2019-03-12T12:43:06.848Z,29.26
2019-03-12T12:44:10.281Z,29.12
2019-03-12T12:45:16.758Z,29.34
2019-03-12T12:46:20.272Z,29.59
2019-03-12T12:47:23.736Z,29.58
2019-03-12T12:48:27.169Z,28.75
2019-03-12T12:49:30.669Z,28.44
2019-03-12T12:50:34.239Z,27.42
2019-03-12T12:51:37.738Z,25.39
2019-03-12T12:52:41.193Z,24.92
2019-03-12T12:53:44.692Z,23.80
2019-03-12T12:54:48.148Z,24.80
2019-03-12T12:55:51.645Z,24.33
2019-03-12T12:56:55.087Z,21.76
2019-03-12T12:57:58.564Z,21.86
2019-03-12T12:59:02.074Z,22.24
2019-03-12T13:00:08.758Z,22.29
2019-03-12T13:01:12.263Z,21.35
2019-03-12T13:02:15.771Z,21.40
2019-03-12T13:03:19.322Z,20.26
2019-03-12T13:04:22.863Z,20.43
2019-03-12T13:05:26.351Z,19.92
2019-03-12T13:06:29.854Z,20.11
2019-03-12T13:07:33.358Z,19.66
2019-03-12T13:08:36.885Z,18.66
2019-03-12T13:09:40.451Z,19.12
2019-03-12T13:10:43.959Z,19.28
2019-03-12T13:11:47.463Z,18.62
2019-03-12T13:12:51.012Z,19.78
2019-03-12T13:13:54.466Z,20.60
2019-03-12T13:14:57.963Z,21.83
2019-03-12T13:16:01.464Z,22.23
2019-03-12T13:17:04.963Z,22.47
2019-03-12T13:18:08.422Z,21.56
2019-03-12T13:19:11.942Z,20.81
2019-03-12T13:20:15.542Z,19.66
2019-03-12T13:21:18.951Z,19.61
2019-03-12T13:22:22.359Z,19.35
2019-03-12T13:23:25.849Z,19.91
2019-03-12T13:24:29.297Z,21.07
2019-03-12T13:25:32.725Z,21.46
2019-03-12T13:26:36.160Z,22.00
2019-03-12T13:27:42.550Z,21.51
2019-03-12T13:28:45.103Z,21.52
2019-03-12T13:29:48.670Z,21.48
2019-03-12T13:30:52.098Z,21.72
2019-03-12T13:31:55.543Z,22.06
2019-03-12T13:32:58.961Z,22.68
2019-03-12T13:34:02.387Z,23.09
2019-03-12T13:35:07.772Z,23.27
2019-03-12T13:36:12.930Z,23.73
2019-03-12T13:37:16.362Z,24.14
2019-03-12T13:38:19.939Z,24.26
2019-03-12T13:39:23.372Z,21.70
2019-03-12T13:40:27.164Z,22.65
2019-03-12T13:41:30.670Z,23.21
2019-03-12T13:42:34.091Z,23.69
2019-03-12T13:43:37.633Z,23.29
2019-03-12T13:44:41.084Z,23.22
2019-03-12T13:45:44.615Z,23.74
2019-03-12T13:46:48.123Z,22.68
2019-03-12T13:47:51.711Z,22.92
2019-03-12T13:48:55.119Z,22.77
2019-03-12T13:49:58.570Z,21.88
2019-03-12T13:51:02.314Z,22.27
2019-03-12T13:52:05.954Z,22.31
2019-03-12T13:53:09.511Z,22.04
2019-03-12T13:54:13.050Z,21.79
2019-03-12T13:55:17.046Z,22.65
2019-03-12T13:56:20.757Z,21.77
2019-03-12T13:57:24.282Z,22.18
2019-03-12T13:58:27.864Z,22.67
2019-03-12T13:59:31.436Z,22.33
2019-03-12T14:00:34.961Z,21.85
2019-03-12T14:01:38.561Z,21.16
2019-03-12T14:02:42.162Z,21.35
2019-03-12T14:03:45.819Z,21.80
2019-03-12T14:04:49.255Z,21.82
2019-03-12T14:05:52.831Z,21.83
2019-03-12T14:06:56.376Z,21.88
2019-03-12T14:07:59.931Z,21.21
2019-03-12T14:09:04.398Z,21.44